createdAt,value
2022-09-14T00:01:45.521Z,1.80
2022-09-14T00:04:19.300Z,2.03
2022-09-14T00:06:49.659Z,2.10
2022-09-14T00:09:21.638Z,2.27
2022-09-14T00:11:51.793Z,2.10
2022-09-14T00:14:21.512Z,1.87
2022-09-14T00:16:51.153Z,1.97
2022-09-14T00:19:23.218Z,2.10
2022-09-14T00:21:53.472Z,1.83
2022-09-14T00:24:23.521Z,1.70
2022-09-14T00:26:52.208Z,1.90
2022-09-14T00:29:20.927Z,2.20
2022-09-14T00:31:49.609Z,1.80
2022-09-14T00:34:20.476Z,2.10
2022-09-14T00:36:52.851Z,1.90
2022-09-14T00:39:25.167Z,1.97
2022-09-14T00:41:54.248Z,2.23
2022-09-14T00:45:02.292Z,1.80
2022-09-14T00:47:33.388Z,1.93
2022-09-14T00:50:05.539Z,2.07
2022-09-14T00:52:36.755Z,2.27
2022-09-14T00:55:08.989Z,1.80
2022-09-14T00:57:40.518Z,2.10
2022-09-14T01:00:11.627Z,2.10
2022-09-14T01:02:42.376Z,1.97
2022-09-14T01:05:15.180Z,2.03
2022-09-14T01:08:10.138Z,1.80
2022-09-14T01:10:54.342Z,1.80
2022-09-14T01:13:32.501Z,2.17
2022-09-14T01:16:14.703Z,1.70
2022-09-14T01:18:47.638Z,2.43
2022-09-14T01:21:24.380Z,2.00
2022-09-14T01:24:01.750Z,2.20
2022-09-14T01:26:59.853Z,2.30
2022-09-14T01:29:35.558Z,2.00
2022-09-14T01:32:07.361Z,1.97
2022-09-14T01:34:41.665Z,2.00
2022-09-14T01:37:13.736Z,2.10
2022-09-14T01:39:46.597Z,2.20
2022-09-14T01:42:16.336Z,2.13
2022-09-14T01:44:49.442Z,2.10
2022-09-14T01:47:31.406Z,2.53
2022-09-14T01:50:07.824Z,2.27
2022-09-14T01:52:44.211Z,2.60
2022-09-14T01:55:18.192Z,2.40
2022-09-14T01:57:51.878Z,2.57
2022-09-14T02:00:23.312Z,2.60
2022-09-14T02:02:57.110Z,2.30
2022-09-14T02:05:31.005Z,2.33
2022-09-14T02:08:00.031Z,2.90
2022-09-14T02:10:29.453Z,2.90
2022-09-14T02:12:58.185Z,2.80
2022-09-14T02:15:28.592Z,2.80
2022-09-14T02:17:59.833Z,2.50
2022-09-14T02:20:32.746Z,2.90
2022-09-14T02:23:01.826Z,3.03
2022-09-14T02:25:30.435Z,3.03
2022-09-14T02:27:59.072Z,3.47
2022-09-14T02:30:34.023Z,2.80
2022-09-14T02:33:12.618Z,3.10
2022-09-14T02:35:48.526Z,3.33
2022-09-14T02:38:29.519Z,3.43
2022-09-14T02:41:04.494Z,3.33
2022-09-14T02:43:42.106Z,3.07
2022-09-14T02:46:19.156Z,2.87
2022-09-14T02:48:55.746Z,2.80
2022-09-14T02:51:30.556Z,3.30
2022-09-14T02:54:05.341Z,2.90
2022-09-14T02:56:36.633Z,3.67
2022-09-14T02:59:06.420Z,3.30
2022-09-14T03:01:36.392Z,2.80
2022-09-14T03:04:05.134Z,2.50
2022-09-14T03:06:33.957Z,2.67
2022-09-14T03:09:02.453Z,2.70
2022-09-14T03:11:31.154Z,2.40
2022-09-14T03:13:59.732Z,2.30
2022-09-14T03:16:28.192Z,2.97
2022-09-14T03:18:58.109Z,2.67
2022-09-14T03:21:26.666Z,2.50
2022-09-14T03:23:57.911Z,3.00
2022-09-14T03:26:29.384Z,2.80
2022-09-14T03:28:59.530Z,3.10
2022-09-14T03:31:28.645Z,3.30
2022-09-14T03:34:00.675Z,3.10
2022-09-14T03:36:31.327Z,2.93
2022-09-14T03:39:02.044Z,2.80
2022-09-14T03:41:30.768Z,3.30
2022-09-14T03:44:00.477Z,2.80
2022-09-14T03:46:29.077Z,2.80
2022-09-14T03:48:58.905Z,3.27
2022-09-14T03:51:27.296Z,2.83
2022-09-14T03:53:55.781Z,2.77
2022-09-14T03:56:25.265Z,3.00
2022-09-14T03:58:54.131Z,3.10
2022-09-14T04:01:24.518Z,3.10
2022-09-14T04:03:53.005Z,2.87
2022-09-14T04:06:22.852Z,2.60
2022-09-14T04:08:51.398Z,2.80
2022-09-14T04:11:22.097Z,3.23
2022-09-14T04:13:51.207Z,2.87
2022-09-14T04:16:21.657Z,3.37
2022-09-14T04:18:50.321Z,3.47
2022-09-14T04:21:21.189Z,2.70
2022-09-14T04:24:14.074Z,3.17
2022-09-14T04:26:43.811Z,2.40
2022-09-14T04:29:13.109Z,3.30
2022-09-14T04:31:41.526Z,3.33
2022-09-14T04:34:11.677Z,3.07
2022-09-14T04:36:40.900Z,2.60
2022-09-14T04:39:13.857Z,2.80
2022-09-14T04:41:42.599Z,2.90
2022-09-14T04:44:11.006Z,2.57
2022-09-14T04:46:46.070Z,3.07
2022-09-14T04:49:15.707Z,3.03
2022-09-14T04:51:44.505Z,2.80
2022-09-14T04:54:17.392Z,3.23
2022-09-14T04:56:46.128Z,3.10
2022-09-14T04:59:16.636Z,3.43
2022-09-14T05:01:47.602Z,3.10
2022-09-14T05:04:17.405Z,2.80
2022-09-14T05:06:45.998Z,2.50
2022-09-14T05:09:19.268Z,3.40
2022-09-14T05:11:49.671Z,2.87
2022-09-14T05:14:18.115Z,2.87
2022-09-14T05:16:48.044Z,2.63
2022-09-14T05:19:19.270Z,2.93
2022-09-14T05:21:48.146Z,2.70
2022-09-14T05:24:20.727Z,2.70
2022-09-14T05:26:49.221Z,2.27
2022-09-14T05:29:19.825Z,2.80
2022-09-14T05:31:48.334Z,2.50
2022-09-14T05:34:17.451Z,2.47
2022-09-14T05:36:45.864Z,2.50
2022-09-14T05:39:14.396Z,2.30
2022-09-14T05:41:44.112Z,2.50
2022-09-14T05:44:12.516Z,2.50
2022-09-14T05:46:42.023Z,2.57
2022-09-14T05:49:10.426Z,2.87
2022-09-14T05:51:38.902Z,2.40
2022-09-14T05:54:11.637Z,2.37
2022-09-14T05:56:39.980Z,2.00
2022-09-14T05:59:12.028Z,2.10
2022-09-14T06:01:40.878Z,2.03
2022-09-14T06:04:11.232Z,9.67
2022-09-14T06:06:40.039Z,6.50
2022-09-14T06:09:08.462Z,6.77
2022-09-14T06:11:37.572Z,6.77
2022-09-14T06:14:07.499Z,5.13
2022-09-14T06:16:37.148Z,7.40
2022-09-14T06:19:05.743Z,8.00
2022-09-14T06:21:36.026Z,6.13
2022-09-14T06:24:06.735Z,7.70
2022-09-14T06:26:35.078Z,10.57
2022-09-14T06:29:04.107Z,3.00
2022-09-14T06:31:32.439Z,7.93
2022-09-14T06:34:02.351Z,4.30
2022-09-14T06:36:31.383Z,7.77
2022-09-14T06:39:02.622Z,4.30
2022-09-14T06:41:32.866Z,2.67
2022-09-14T06:44:02.835Z,2.97
2022-09-14T06:46:32.606Z,4.00
2022-09-14T06:49:04.661Z,7.07
2022-09-14T06:51:35.560Z,10.47
2022-09-14T06:54:05.070Z,12.03
2022-09-14T06:56:34.935Z,6.90
2022-09-14T06:59:03.915Z,7.83
2022-09-14T07:01:32.282Z,5.90
2022-09-14T07:04:03.603Z,6.87
2022-09-14T07:06:34.234Z,3.10
2022-09-14T07:09:06.362Z,5.43
2022-09-14T07:11:35.756Z,5.43
2022-09-14T07:14:04.076Z,4.20
2022-09-14T07:16:34.567Z,4.87
2022-09-14T07:19:06.617Z,9.87
2022-09-14T07:21:37.318Z,5.40
2022-09-14T07:24:06.976Z,4.60
2022-09-14T07:26:39.714Z,3.10
2022-09-14T07:29:10.006Z,3.60
2022-09-14T07:31:41.126Z,2.70
2022-09-14T07:34:12.296Z,2.50
2022-09-14T07:36:41.263Z,2.10
2022-09-14T07:39:12.169Z,2.00
2022-09-14T07:41:40.635Z,1.90
2022-09-14T07:44:10.221Z,5.67
2022-09-14T07:46:40.620Z,4.07
2022-09-14T07:49:12.122Z,2.10
2022-09-14T07:51:41.393Z,5.83
2022-09-14T07:54:12.565Z,2.10
2022-09-14T07:56:43.498Z,1.87
2022-09-14T08:02:02.927Z,3.67
2022-09-14T08:04:32.728Z,1.90
2022-09-14T08:07:02.164Z,2.30
2022-09-14T08:09:30.769Z,2.50
2022-09-14T08:11:59.564Z,1.80
2022-09-14T08:14:28.290Z,2.03
2022-09-14T08:16:57.491Z,2.10
2022-09-14T08:19:26.235Z,2.33
2022-09-14T08:21:59.547Z,1.90
2022-09-14T08:24:28.103Z,2.20
2022-09-14T08:26:56.432Z,3.63
2022-09-14T08:29:24.991Z,5.20
2022-09-14T08:31:53.913Z,3.50
2022-09-14T08:34:22.734Z,3.37
2022-09-14T08:36:51.133Z,2.67
2022-09-14T08:39:21.101Z,3.63
2022-09-14T08:41:55.318Z,2.60
2022-09-14T08:44:28.235Z,2.00
2022-09-14T08:47:02.391Z,2.23
2022-09-14T08:49:42.778Z,2.50
2022-09-14T08:52:23.161Z,2.30
2022-09-14T08:54:55.629Z,2.20
2022-09-14T08:57:30.373Z,2.10
2022-09-14T09:00:08.105Z,2.47
2022-09-14T09:03:05.410Z,1.80
2022-09-14T09:05:38.471Z,1.93
2022-09-14T09:08:19.612Z,2.10
2022-09-14T09:10:54.543Z,2.03
2022-09-14T09:13:27.840Z,2.43
2022-09-14T09:16:00.782Z,1.73
2022-09-14T09:18:38.379Z,2.03
2022-09-14T09:21:11.837Z,2.53
2022-09-14T09:23:41.345Z,2.80
2022-09-14T09:26:18.207Z,2.53
2022-09-14T09:28:49.657Z,2.47
2022-09-14T09:31:21.336Z,2.13
2022-09-14T09:33:51.077Z,2.63
2022-09-14T09:36:20.146Z,2.20
2022-09-14T09:38:48.515Z,2.00
2022-09-14T09:41:22.181Z,2.07
2022-09-14T09:44:01.838Z,2.07
2022-09-14T09:46:32.675Z,1.93
2022-09-14T09:49:05.255Z,1.80
2022-09-14T09:51:36.237Z,2.27
2022-09-14T09:54:10.598Z,2.33
2022-09-14T09:56:52.118Z,1.90
2022-09-14T09:59:30.279Z,2.30
2022-09-14T10:02:14.413Z,1.73
2022-09-14T10:05:02.139Z,2.10
2022-09-14T10:07:33.097Z,2.07
2022-09-14T10:10:04.147Z,2.60
2022-09-14T10:12:35.477Z,1.97
2022-09-14T10:15:17.546Z,1.83
2022-09-14T10:18:06.958Z,2.13
2022-09-14T10:20:35.946Z,2.50
2022-09-14T10:23:26.759Z,2.30
2022-09-14T10:26:24.478Z,1.63
2022-09-14T10:28:54.297Z,2.50
2022-09-14T10:31:34.330Z,1.80
2022-09-14T10:34:02.798Z,8.93
2022-09-14T10:36:33.257Z,1.77
2022-09-14T10:39:12.956Z,2.80
2022-09-14T10:41:46.618Z,5.77
2022-09-14T10:44:45.198Z,2.83
2022-09-14T10:47:31.686Z,2.33
2022-09-14T10:50:12.728Z,1.77
2022-09-14T10:52:51.837Z,1.80
2022-09-14T10:55:34.519Z,1.97
2022-09-14T10:58:30.151Z,2.17
2022-09-14T11:01:12.969Z,2.30
2022-09-14T11:04:00.295Z,5.97
2022-09-14T11:06:44.215Z,5.30
2022-09-14T11:09:19.919Z,4.77
2022-09-14T11:12:01.336Z,2.20
2022-09-14T11:14:49.959Z,2.00
2022-09-14T11:17:45.160Z,2.27
2022-09-14T11:20:25.818Z,1.60
2022-09-14T11:23:04.774Z,1.80
2022-09-14T11:25:47.185Z,1.80
2022-09-14T11:28:20.427Z,1.50
2022-09-14T11:30:54.530Z,1.73
2022-09-14T11:33:32.719Z,1.70
2022-09-14T11:36:06.334Z,1.70
2022-09-14T11:38:41.579Z,1.53
2022-09-14T11:41:18.356Z,1.70
2022-09-14T11:43:51.932Z,1.60
2022-09-14T11:46:23.714Z,1.67
2022-09-14T11:49:01.878Z,1.50
2022-09-14T11:51:34.359Z,1.70
2022-09-14T11:54:02.907Z,2.20
2022-09-14T11:56:34.106Z,1.90
2022-09-14T11:59:07.008Z,1.83
2022-09-14T12:01:37.813Z,4.77
2022-09-14T12:04:14.042Z,2.57
2022-09-14T12:06:56.177Z,1.93
2022-09-14T12:09:50.178Z,2.17
2022-09-14T12:12:36.434Z,2.23
2022-09-14T12:15:17.636Z,2.10
2022-09-14T12:17:47.546Z,1.77
2022-09-14T12:20:40.746Z,2.00
2022-09-14T12:23:35.157Z,2.00
2022-09-14T12:26:23.561Z,2.13
2022-09-14T12:28:53.236Z,2.23
2022-09-14T12:31:38.658Z,2.70
2022-09-14T12:34:26.225Z,3.20
2022-09-14T12:37:01.896Z,4.60
2022-09-14T12:39:32.443Z,2.40
2022-09-14T12:42:27.537Z,5.93
2022-09-14T12:44:56.457Z,3.70
2022-09-14T12:47:55.638Z,2.83
2022-09-14T12:50:24.440Z,2.70
2022-09-14T12:53:20.198Z,1.90
2022-09-14T12:56:04.207Z,1.93
2022-09-14T12:59:03.560Z,1.73
2022-09-14T13:01:39.372Z,1.83
2022-09-14T13:04:16.595Z,2.33
2022-09-14T13:06:47.573Z,2.03
2022-09-14T13:09:22.059Z,2.03
2022-09-14T13:11:57.110Z,1.83
2022-09-14T13:14:29.263Z,2.00
2022-09-14T13:16:59.476Z,1.60
2022-09-14T13:19:29.678Z,3.00
2022-09-14T13:22:00.458Z,2.00
2022-09-14T13:24:35.010Z,2.80
2022-09-14T13:27:05.086Z,2.10
2022-09-14T13:29:33.919Z,2.00
2022-09-14T13:32:04.125Z,1.73
2022-09-14T13:34:36.394Z,1.93
2022-09-14T13:37:06.281Z,1.80
2022-09-14T13:39:40.378Z,1.80
2022-09-14T13:42:09.518Z,1.90
2022-09-14T13:44:45.430Z,1.90
2022-09-14T13:47:16.875Z,1.70
2022-09-14T13:49:46.586Z,1.50
2022-09-14T13:53:00.346Z,1.80
2022-09-14T13:55:30.895Z,2.47
2022-09-14T13:58:21.222Z,2.03
2022-09-14T14:00:57.132Z,1.93
2022-09-14T14:03:35.256Z,1.77
2022-09-14T14:06:20.348Z,2.10
2022-09-14T14:08:55.980Z,1.70
2022-09-14T14:11:35.799Z,2.13
2022-09-14T14:14:20.522Z,3.70
2022-09-14T14:17:28.395Z,4.20
2022-09-14T14:19:59.038Z,2.80
2022-09-14T14:22:30.348Z,2.30
2022-09-14T14:25:13.398Z,2.47
2022-09-14T14:27:46.918Z,2.23
2022-09-14T14:30:17.814Z,2.33
2022-09-14T14:32:52.106Z,4.30
2022-09-14T14:35:23.502Z,3.43
2022-09-14T14:37:52.329Z,2.30
2022-09-14T14:40:21.521Z,2.20
2022-09-14T14:42:52.928Z,2.33
2022-09-14T14:45:23.318Z,2.43
2022-09-14T14:47:51.878Z,1.90
2022-09-14T14:50:22.621Z,1.60
2022-09-14T14:52:52.551Z,1.67
2022-09-14T14:55:21.603Z,2.20
2022-09-14T14:57:52.720Z,3.27
2022-09-14T15:00:23.859Z,8.27
2022-09-14T15:02:53.159Z,9.57
2022-09-14T15:05:21.992Z,2.93
2022-09-14T15:07:55.259Z,4.97
2022-09-14T15:10:26.225Z,21.13
2022-09-14T15:12:56.276Z,10.63
2022-09-14T15:15:29.716Z,5.70
2022-09-14T15:17:58.685Z,5.13
2022-09-14T15:20:27.767Z,12.37
2022-09-14T15:22:56.558Z,3.07
2022-09-14T15:25:25.147Z,7.37
2022-09-14T15:27:53.745Z,5.53
2022-09-14T15:30:23.911Z,3.10
2022-09-14T15:32:52.375Z,2.50
2022-09-14T15:35:21.149Z,2.07
2022-09-14T15:37:49.832Z,1.87
2022-09-14T15:40:19.958Z,1.87
2022-09-14T15:42:48.630Z,2.07
2022-09-14T15:45:18.390Z,2.20
2022-09-14T15:47:48.811Z,2.00
2022-09-14T15:50:17.852Z,1.70
2022-09-14T15:52:46.355Z,1.70
2022-09-14T15:55:17.254Z,1.80
2022-09-14T15:57:45.713Z,1.60
2022-09-14T16:00:15.746Z,9.40
2022-09-14T16:02:44.327Z,7.33
2022-09-14T16:05:16.498Z,9.27
2022-09-14T16:07:48.733Z,3.73
2022-09-14T16:10:17.333Z,4.73
2022-09-14T16:12:45.772Z,1.80
2022-09-14T16:15:14.492Z,55.30
2022-09-14T16:17:42.858Z,6.77
2022-09-14T16:20:14.008Z,3.83
2022-09-14T16:22:42.835Z,2.20
2022-09-14T16:25:11.595Z,4.53
2022-09-14T16:27:40.737Z,12.63
2022-09-14T16:30:10.997Z,8.83
2022-09-14T16:32:39.648Z,12.60
2022-09-14T16:35:10.548Z,11.27
2022-09-14T16:37:43.238Z,13.73
2022-09-14T16:40:13.495Z,22.20
2022-09-14T16:42:42.184Z,18.83
2022-09-14T16:45:11.550Z,12.27
2022-09-14T16:47:41.448Z,7.93
2022-09-14T16:50:11.555Z,9.70
2022-09-14T16:52:40.969Z,8.77
2022-09-14T16:55:11.313Z,15.60
2022-09-14T16:57:39.743Z,8.83
2022-09-14T17:00:10.652Z,8.50
2022-09-14T17:02:39.111Z,25.70
2022-09-14T17:05:08.499Z,31.57
2022-09-14T17:07:36.965Z,28.17
2022-09-14T17:10:06.656Z,19.03
2022-09-14T17:12:36.872Z,11.27
2022-09-14T17:15:06.048Z,5.90
2022-09-14T17:17:34.544Z,4.77
2022-09-14T17:20:03.434Z,3.90
2022-09-14T17:22:31.780Z,2.97
2022-09-14T17:25:00.465Z,3.00
2022-09-14T17:27:28.872Z,2.67
2022-09-14T17:29:59.166Z,2.03
2022-09-14T17:32:27.464Z,2.23
2022-09-14T17:34:58.256Z,2.13
2022-09-14T17:37:26.768Z,2.20
2022-09-14T17:39:55.521Z,2.40
2022-09-14T17:42:24.022Z,2.67
2022-09-14T17:44:54.352Z,2.20
2022-09-14T17:47:24.477Z,2.80
2022-09-14T17:49:52.744Z,3.63
2022-09-14T17:52:21.113Z,3.67
2022-09-14T17:54:49.543Z,2.53
2022-09-14T17:57:18.994Z,2.50
2022-09-14T17:59:48.049Z,2.20
2022-09-14T18:02:16.486Z,2.90
2022-09-14T18:04:48.517Z,8.80
2022-09-14T18:07:17.144Z,17.97
2022-09-14T18:09:47.758Z,12.90
2022-09-14T18:12:17.985Z,8.43
2022-09-14T18:14:55.841Z,6.53
2022-09-14T18:17:24.249Z,4.33
2022-09-14T18:19:59.453Z,4.00
2022-09-14T18:22:29.186Z,3.83
2022-09-14T18:24:57.414Z,6.17
2022-09-14T18:27:25.904Z,4.93
2022-09-14T18:29:54.360Z,4.50
2022-09-14T18:32:22.993Z,7.80
2022-09-14T18:34:55.461Z,5.83
2022-09-14T18:37:24.991Z,4.77
2022-09-14T18:39:53.459Z,4.43
2022-09-14T18:42:21.815Z,4.10
2022-09-14T18:44:53.965Z,4.17
2022-09-14T18:47:23.616Z,4.47
2022-09-14T18:49:54.758Z,4.40
2022-09-14T18:52:23.682Z,3.00
2022-09-14T18:54:52.118Z,2.90
2022-09-14T18:57:21.043Z,2.73
2022-09-14T18:59:49.766Z,2.63
2022-09-14T19:02:18.231Z,2.40
2022-09-14T19:04:47.591Z,2.50
2022-09-14T19:07:17.714Z,2.53
2022-09-14T19:09:48.656Z,2.70
2022-09-14T19:12:17.896Z,2.83
2022-09-14T19:14:46.221Z,2.77
2022-09-14T19:17:14.632Z,2.50
2022-09-14T19:19:43.501Z,2.73
2022-09-14T19:22:11.948Z,2.43
2022-09-14T19:24:42.030Z,2.90
2022-09-14T19:27:10.326Z,11.00
2022-09-14T19:29:39.248Z,17.07
2022-09-14T19:32:08.897Z,11.23
2022-09-14T19:34:39.205Z,9.50
2022-09-14T19:37:07.617Z,6.17
2022-09-14T19:39:36.178Z,5.20
2022-09-14T19:42:06.352Z,4.93
2022-09-14T19:44:36.410Z,4.10
2022-09-14T19:47:05.146Z,3.73
2022-09-14T19:49:33.638Z,3.17
2022-09-14T19:52:02.570Z,15.20
2022-09-14T19:54:30.918Z,16.53
2022-09-14T19:56:59.261Z,11.17
2022-09-14T19:59:29.057Z,14.60
2022-09-14T20:01:57.644Z,20.97
2022-09-14T20:04:26.282Z,25.60
2022-09-14T20:06:55.652Z,17.60
2022-09-14T20:09:25.657Z,12.97
2022-09-14T20:11:54.915Z,23.63
2022-09-14T20:14:24.939Z,29.77
2022-09-14T20:16:57.500Z,43.43
2022-09-14T20:19:27.917Z,25.57
2022-09-14T20:21:58.849Z,17.80
2022-09-14T20:24:32.469Z,12.30
2022-09-14T20:27:02.278Z,10.23
2022-09-14T20:29:35.412Z,8.03
2022-09-14T20:32:06.287Z,6.23
2022-09-14T20:34:35.525Z,5.33
2022-09-14T20:37:03.990Z,12.83
2022-09-14T20:39:36.054Z,17.87
2022-09-14T20:42:07.075Z,17.47
2022-09-14T20:44:35.549Z,12.60
2022-09-14T20:47:06.879Z,7.33
2022-09-14T20:49:35.278Z,6.17
2022-09-14T20:52:04.616Z,5.33
2022-09-14T20:54:33.074Z,4.60
2022-09-14T20:57:04.433Z,4.03
2022-09-14T20:59:39.244Z,3.50
2022-09-14T21:02:15.287Z,3.03
2022-09-14T21:04:43.778Z,2.70
2022-09-14T21:07:12.821Z,2.60
2022-09-14T21:09:41.632Z,3.40
2022-09-14T21:12:15.248Z,2.90
2022-09-14T21:14:45.237Z,2.90
2022-09-14T21:17:17.914Z,3.10
2022-09-14T21:19:46.456Z,3.10
2022-09-14T21:22:15.667Z,3.30
2022-09-14T21:24:44.243Z,3.17
2022-09-14T21:27:12.577Z,3.83
2022-09-14T21:29:41.492Z,3.73
2022-09-14T21:32:09.830Z,3.17
2022-09-14T21:34:39.520Z,3.50
2022-09-14T21:37:08.688Z,4.70
2022-09-14T21:39:38.182Z,3.73
2022-09-14T21:42:06.934Z,3.87
2022-09-14T21:44:37.999Z,3.47
2022-09-14T21:47:06.577Z,3.20
2022-09-14T21:49:35.012Z,3.10
2022-09-14T21:52:05.253Z,3.73
2022-09-14T21:54:34.257Z,3.67
2022-09-14T21:57:02.689Z,3.30
2022-09-14T21:59:31.002Z,3.40
2022-09-14T22:01:59.479Z,3.20
2022-09-14T22:04:29.006Z,3.50
2022-09-14T22:06:59.492Z,3.27
2022-09-14T22:09:30.695Z,3.07
2022-09-14T22:11:59.425Z,3.43
2022-09-14T22:14:29.884Z,3.37
2022-09-14T22:16:58.447Z,3.13
2022-09-14T22:19:28.677Z,2.70
2022-09-14T22:21:58.235Z,3.30
2022-09-14T22:24:36.461Z,3.20
2022-09-14T22:27:06.530Z,2.67
2022-09-14T22:29:35.021Z,2.93
2022-09-14T22:32:06.026Z,2.97
2022-09-14T22:34:35.816Z,3.33
2022-09-14T22:37:04.807Z,3.27
2022-09-14T22:39:35.143Z,3.00
2022-09-14T22:42:03.511Z,3.27
2022-09-14T22:44:32.019Z,2.60
2022-09-14T22:47:00.915Z,2.57
2022-09-14T22:49:29.473Z,3.00
2022-09-14T22:51:58.004Z,2.87
2022-09-14T22:54:26.718Z,2.70
2022-09-14T22:56:56.798Z,2.60
2022-09-14T22:59:25.289Z,3.00
2022-09-14T23:01:53.925Z,3.13
2022-09-14T23:04:22.647Z,3.13
2022-09-14T23:06:51.707Z,2.53
2022-09-14T23:09:23.463Z,2.90
2022-09-14T23:11:52.146Z,2.67
2022-09-14T23:14:22.381Z,2.87
2022-09-14T23:16:50.767Z,2.63
2022-09-14T23:19:20.251Z,2.80
2022-09-14T23:21:49.298Z,2.73
2022-09-14T23:24:17.988Z,2.57
2022-09-14T23:26:46.614Z,2.67
2022-09-14T23:29:18.063Z,2.93
2022-09-14T23:31:47.978Z,2.80
2022-09-14T23:34:16.907Z,2.97
2022-09-14T23:36:45.509Z,2.83
2022-09-14T23:39:14.479Z,3.00
2022-09-14T23:41:43.133Z,2.90
2022-09-14T23:44:12.790Z,3.00
2022-09-14T23:46:41.106Z,2.70
2022-09-14T23:49:12.307Z,2.70
2022-09-14T23:51:42.030Z,2.90
2022-09-14T23:54:11.153Z,3.63
2022-09-14T23:56:39.842Z,3.53
2022-09-14T23:59:10.803Z,3.10
